Grouse Creek, UT (84313)

3:36 PM MST on December 21, 2014 (GMT -0700)
RAWS ROSEBUD UT US | Change Station
CLOSE
Current Station
Personal Weather Station
Location: Grouse Creek, UT
Elevation: 4986 ft
Nearby Weather Stations

Elev 4986 ft 41.61 °N, 113.59 °W | Updated 54 minutes ago

Overcast
Overcast
46 °F
Feels Like 40 °F
N
13
Wind Variable Wind from West
Gusts 22.0 mph

Today
High -- | Low -- °F
--% Chance of Precip.
Yesterday
High -- | Low -- °F
Precip. -- in
7:57 AM 5:08 PM
Waning Crescent, 0% visible
Pressure 28.80 in
Visibility 10.0 miles
Clouds Few 4100 ft
Mostly Cloudy 4800 ft
Overcast 8500 ft
Windchill 40 °F
Dew Point 41 °F
Humidity 82%
Rainfall 0.47 in
Snow Depth Not available.
UV 0 out of 12
Pollen .10 out of 12
Air Quality Not available.
Flu Activity Not available.
METAR KU16 212158Z AUTO 27014G19KT 10SM FEW041 BKN048 OVC085 11/06 A2989 RMK AO2 SLP752 T01110056 $

More Conditions Fewer Conditions

Pressure 28.80 in
Visibility 10.0 miles
Clouds Few 4100 ft
Mostly Cloudy 4800 ft
Overcast 8500 ft
Windchill 40 °F
Dew Point 41 °F
Humidity 82%
Rainfall 0.47 in
Snow Depth Not available.
UV 0 out of 12
Pollen .10 out of 12
Air Quality Not available.
Flu Activity Not available.
METAR KU16 212158Z AUTO 27014G19KT 10SM FEW041 BKN048 OVC085 11/06 A2989 RMK AO2 SLP752 T01110056 $

More Conditions Fewer Conditions

10-Day Weather Forecast

Almanac

Astronomy

Dec. 21, 2014 Rise Set
Actual Time
Civil Twilight
Nautical Twilight
Astronomical Twilight
Moon
Length of Visible Light
Length of Day
Tomorrow will be .
, % of the Moon is Illuminated

Today's Extremes

State Highs State Lows

Community

WunderPhotos

Upload Photos

1,779,499 photos uploaded!

WunderBlogs® & News

Nearby

Air Quality

  Air Quality AQ Index Pollutant
Not available.

Snow Depth

Station Depth Elevation

Earthquake Activity

City Distance Mag. Time & Date
Minimum magnitude displayed is 2.5.

Coastal Water Temperatures

Place Temperature

Nearby Weather Stations